sensor_id;sensor_type;location;lat;lon;timestamp;temperature;humidity
66594;DHT22;53450;42.584;23.366;2023-04-24T00:00:04;9.50;66.68
66594;DHT22;53450;42.584;23.366;2023-04-24T00:02:36;9.46;67.02
66594;DHT22;53450;42.584;23.366;2023-04-24T00:05:06;9.51;66.63
66594;DHT22;53450;42.584;23.366;2023-04-24T00:07:32;9.55;67.14
66594;DHT22;53450;42.584;23.366;2023-04-24T00:09:58;9.36;66.81
66594;DHT22;53450;42.584;23.366;2023-04-24T00:12:24;9.26;67.53
66594;DHT22;53450;42.584;23.366;2023-04-24T00:14:50;9.43;67.67
66594;DHT22;53450;42.584;23.366;2023-04-24T00:17:16;9.40;67.80
66594;DHT22;53450;42.584;23.366;2023-04-24T00:19:45;9.36;68.25
66594;DHT22;53450;42.584;23.366;2023-04-24T00:22:11;9.07;69.18
66594;DHT22;53450;42.584;23.366;2023-04-24T00:24:39;8.95;69.60
66594;DHT22;53450;42.584;23.366;2023-04-24T00:27:04;8.78;69.75
66594;DHT22;53450;42.584;23.366;2023-04-24T00:29:30;8.76;70.23
66594;DHT22;53450;42.584;23.366;2023-04-24T00:32:21;8.92;69.88
66594;DHT22;53450;42.584;23.366;2023-04-24T00:35:12;9.06;69.55
66594;DHT22;53450;42.584;23.366;2023-04-24T00:37:38;9.02;69.61
66594;DHT22;53450;42.584;23.366;2023-04-24T00:40:04;8.98;69.93
66594;DHT22;53450;42.584;23.366;2023-04-24T00:42:31;9.02;70.27
66594;DHT22;53450;42.584;23.366;2023-04-24T00:44:57;9.17;70.17
66594;DHT22;53450;42.584;23.366;2023-04-24T00:47:23;9.13;70.05
66594;DHT22;53450;42.584;23.366;2023-04-24T00:49:50;9.10;70.16
66594;DHT22;53450;42.584;23.366;2023-04-24T00:52:16;9.07;70.23
66594;DHT22;53450;42.584;23.366;2023-04-24T00:54:46;9.16;70.32
66594;DHT22;53450;42.584;23.366;2023-04-24T00:57:13;9.34;69.70
66594;DHT22;53450;42.584;23.366;2023-04-24T00:59:41;9.47;69.37
66594;DHT22;53450;42.584;23.366;2023-04-24T01:02:08;9.61;68.92
66594;DHT22;53450;42.584;23.366;2023-04-24T01:04:36;9.74;67.23
66594;DHT22;53450;42.584;23.366;2023-04-24T01:07:04;9.61;67.47
66594;DHT22;53450;42.584;23.366;2023-04-24T01:09:36;9.67;67.67
66594;DHT22;53450;42.584;23.366;2023-04-24T01:12:02;9.75;68.07
66594;DHT22;53450;42.584;23.366;2023-04-24T01:14:28;9.70;67.97
66594;DHT22;53450;42.584;23.366;2023-04-24T01:16:54;9.64;68.02
66594;DHT22;53450;42.584;23.366;2023-04-24T01:19:20;9.57;68.01
66594;DHT22;53450;42.584;23.366;2023-04-24T01:21:47;9.51;68.52
66594;DHT22;53450;42.584;23.366;2023-04-24T01:24:17;9.54;68.53
66594;DHT22;53450;42.584;23.366;2023-04-24T01:26:44;9.55;69.15
66594;DHT22;53450;42.584;23.366;2023-04-24T01:29:11;9.67;69.51
66594;DHT22;53450;42.584;23.366;2023-04-24T01:31:37;9.65;69.04
66594;DHT22;53450;42.584;23.366;2023-04-24T01:34:03;9.51;70.81
66594;DHT22;53450;42.584;23.366;2023-04-24T01:36:30;9.57;71.45
66594;DHT22;53450;42.584;23.366;2023-04-24T01:38:56;9.50;70.81
66594;DHT22;53450;42.584;23.366;2023-04-24T01:41:25;9.48;72.01
66594;DHT22;53450;42.584;23.366;2023-04-24T01:43:51;9.31;73.78
66594;DHT22;53450;42.584;23.366;2023-04-24T01:46:19;9.20;74.94
66594;DHT22;53450;42.584;23.366;2023-04-24T01:48:45;9.24;75.81
66594;DHT22;53450;42.584;23.366;2023-04-24T01:51:11;9.26;75.86
66594;DHT22;53450;42.584;23.366;2023-04-24T01:54:01;9.16;75.70
66594;DHT22;53450;42.584;23.366;2023-04-24T01:56:52;9.26;76.39
66594;DHT22;53450;42.584;23.366;2023-04-24T01:59:42;9.26;77.04
66594;DHT22;53450;42.584;23.366;2023-04-24T02:02:08;9.23;76.76
66594;DHT22;53450;42.584;23.366;2023-04-24T02:04:34;9.28;75.20
66594;DHT22;53450;42.584;23.366;2023-04-24T02:07:00;9.26;76.22
66594;DHT22;53450;42.584;23.366;2023-04-24T02:09:25;9.06;77.05
66594;DHT22;53450;42.584;23.366;2023-04-24T02:11:51;8.93;76.62
66594;DHT22;53450;42.584;23.366;2023-04-24T02:14:17;9.09;75.36
66594;DHT22;53450;42.584;23.366;2023-04-24T02:16:43;9.22;75.69
66594;DHT22;53450;42.584;23.366;2023-04-24T02:19:09;9.15;76.06
66594;DHT22;53450;42.584;23.366;2023-04-24T02:21:35;9.05;77.16
66594;DHT22;53450;42.584;23.366;2023-04-24T02:24:01;9.00;77.73
66594;DHT22;53450;42.584;23.366;2023-04-24T02:26:27;8.93;77.74
66594;DHT22;53450;42.584;23.366;2023-04-24T02:28:52;8.86;77.56
66594;DHT22;53450;42.584;23.366;2023-04-24T02:31:19;8.89;77.69
66594;DHT22;53450;42.584;23.366;2023-04-24T02:33:47;8.83;77.92
66594;DHT22;53450;42.584;23.366;2023-04-24T02:36:12;8.82;78.31
66594;DHT22;53450;42.584;23.366;2023-04-24T02:38:38;8.82;78.08
66594;DHT22;53450;42.584;23.366;2023-04-24T02:41:07;8.76;78.31
66594;DHT22;53450;42.584;23.366;2023-04-24T02:43:33;8.68;78.65
66594;DHT22;53450;42.584;23.366;2023-04-24T02:45:59;8.57;79.27
66594;DHT22;53450;42.584;23.366;2023-04-24T02:48:25;8.54;79.37
66594;DHT22;53450;42.584;23.366;2023-04-24T02:50:51;8.57;79.48
66594;DHT22;53450;42.584;23.366;2023-04-24T02:53:17;8.47;79.49
66594;DHT22;53450;42.584;23.366;2023-04-24T02:55:42;8.38;79.25
66594;DHT22;53450;42.584;23.366;2023-04-24T02:58:08;8.24;79.19
66594;DHT22;53450;42.584;23.366;2023-04-24T03:00:34;8.09;80.09
66594;DHT22;53450;42.584;23.366;2023-04-24T03:03:03;7.99;80.43
66594;DHT22;53450;42.584;23.366;2023-04-24T03:05:28;7.99;80.77
66594;DHT22;53450;42.584;23.366;2023-04-24T03:07:56;8.04;80.82
66594;DHT22;53450;42.584;23.366;2023-04-24T03:10:22;8.06;80.85
66594;DHT22;53450;42.584;23.366;2023-04-24T03:12:50;7.97;80.51
66594;DHT22;53450;42.584;23.366;2023-04-24T03:15:18;7.86;80.97
66594;DHT22;53450;42.584;23.366;2023-04-24T03:17:43;7.85;81.20
66594;DHT22;53450;42.584;23.366;2023-04-24T03:20:09;7.83;81.58
66594;DHT22;53450;42.584;23.366;2023-04-24T03:22:35;7.80;81.36
66594;DHT22;53450;42.584;23.366;2023-04-24T03:25:05;7.72;81.65
66594;DHT22;53450;42.584;23.366;2023-04-24T03:27:31;7.69;82.05
66594;DHT22;53450;42.584;23.366;2023-04-24T03:30:01;7.70;81.72
66594;DHT22;53450;42.584;23.366;2023-04-24T03:32:37;7.75;81.81
66594;DHT22;53450;42.584;23.366;2023-04-24T03:35:07;7.65;82.05
66594;DHT22;53450;42.584;23.366;2023-04-24T03:37:34;7.59;82.50
66594;DHT22;53450;42.584;23.366;2023-04-24T03:40:25;7.61;82.57
66594;DHT22;53450;42.584;23.366;2023-04-24T03:42:51;7.65;82.66
66594;DHT22;53450;42.584;23.366;2023-04-24T03:45:18;7.68;82.40
66594;DHT22;53450;42.584;23.366;2023-04-24T03:47:47;7.69;82.21
66594;DHT22;53450;42.584;23.366;2023-04-24T03:50:37;7.68;82.30
66594;DHT22;53450;42.584;23.366;2023-04-24T03:53:04;7.68;82.02
66594;DHT22;53450;42.584;23.366;2023-04-24T03:55:36;8.13;81.39
66594;DHT22;53450;42.584;23.366;2023-04-24T03:58:02;8.71;80.14
66594;DHT22;53450;42.584;23.366;2023-04-24T04:00:28;9.15;77.81
66594;DHT22;53450;42.584;23.366;2023-04-24T04:03:13;9.54;75.86
66594;DHT22;53450;42.584;23.366;2023-04-24T04:05:40;10.16;74.46
66594;DHT22;53450;42.584;23.366;2023-04-24T04:08:06;10.22;74.42
66594;DHT22;53450;42.584;23.366;2023-04-24T04:10:32;9.95;74.85
66594;DHT22;53450;42.584;23.366;2023-04-24T04:13:00;9.58;76.08
66594;DHT22;53450;42.584;23.366;2023-04-24T04:15:26;9.31;77.32
66594;DHT22;53450;42.584;23.366;2023-04-24T04:17:51;9.22;77.40
66594;DHT22;53450;42.584;23.366;2023-04-24T04:20:23;8.98;78.73
66594;DHT22;53450;42.584;23.366;2023-04-24T04:22:50;8.98;78.95
66594;DHT22;53450;42.584;23.366;2023-04-24T04:25:23;8.86;78.95
66594;DHT22;53450;42.584;23.366;2023-04-24T04:27:48;9.03;78.99
66594;DHT22;53450;42.584;23.366;2023-04-24T04:30:14;9.03;78.91
66594;DHT22;53450;42.584;23.366;2023-04-24T04:32:47;9.05;79.74
66594;DHT22;53450;42.584;23.366;2023-04-24T04:35:13;9.13;79.87
66594;DHT22;53450;42.584;23.366;2023-04-24T04:37:39;9.23;79.44
66594;DHT22;53450;42.584;23.366;2023-04-24T04:40:17;9.38;78.49
66594;DHT22;53450;42.584;23.366;2023-04-24T04:42:49;9.41;78.43
66594;DHT22;53450;42.584;23.366;2023-04-24T04:45:19;9.41;78.29
66594;DHT22;53450;42.584;23.366;2023-04-24T04:48:05;9.23;78.57
66594;DHT22;53450;42.584;23.366;2023-04-24T04:50:35;9.28;78.22
66594;DHT22;53450;42.584;23.366;2023-04-24T04:53:05;9.31;76.12
66594;DHT22;53450;42.584;23.366;2023-04-24T04:55:36;9.43;76.34
66594;DHT22;53450;42.584;23.366;2023-04-24T04:58:09;9.40;77.49
66594;DHT22;53450;42.584;23.366;2023-04-24T05:00:35;9.27;78.50
66594;DHT22;53450;42.584;23.366;2023-04-24T05:03:10;9.33;78.71
66594;DHT22;53450;42.584;23.366;2023-04-24T05:05:36;9.47;76.93
66594;DHT22;53450;42.584;23.366;2023-04-24T05:08:07;9.37;74.50
66594;DHT22;53450;42.584;23.366;2023-04-24T05:10:34;9.51;75.21
66594;DHT22;53450;42.584;23.366;2023-04-24T05:13:03;9.50;74.69
66594;DHT22;53450;42.584;23.366;2023-04-24T05:15:30;9.54;75.20
66594;DHT22;53450;42.584;23.366;2023-04-24T05:18:20;9.62;74.57
66594;DHT22;53450;42.584;23.366;2023-04-24T05:20:47;9.67;74.44
66594;DHT22;53450;42.584;23.366;2023-04-24T05:23:12;9.61;75.00
66594;DHT22;53450;42.584;23.366;2023-04-24T05:25:40;9.65;74.58
66594;DHT22;53450;42.584;23.366;2023-04-24T05:28:10;9.84;74.81
66594;DHT22;53450;42.584;23.366;2023-04-24T05:30:36;9.98;75.40
66594;DHT22;53450;42.584;23.366;2023-04-24T05:33:26;10.03;75.55
66594;DHT22;53450;42.584;23.366;2023-04-24T05:35:52;9.98;75.21
66594;DHT22;53450;42.584;23.366;2023-04-24T05:38:18;10.03;74.59
66594;DHT22;53450;42.584;23.366;2023-04-24T05:40:45;10.13;73.12
66594;DHT22;53450;42.584;23.366;2023-04-24T05:43:12;10.26;73.10
66594;DHT22;53450;42.584;23.366;2023-04-24T05:45:38;10.33;71.91
66594;DHT22;53450;42.584;23.366;2023-04-24T05:48:04;10.35;71.98
66594;DHT22;53450;42.584;23.366;2023-04-24T05:50:30;10.50;71.75
66594;DHT22;53450;42.584;23.366;2023-04-24T05:52:55;10.63;71.79
66594;DHT22;53450;42.584;23.366;2023-04-24T05:55:27;10.63;70.96
66594;DHT22;53450;42.584;23.366;2023-04-24T05:57:53;10.60;74.22
66594;DHT22;53450;42.584;23.366;2023-04-24T06:00:20;10.73;72.57
66594;DHT22;53450;42.584;23.366;2023-04-24T06:02:54;10.91;70.61
66594;DHT22;53450;42.584;23.366;2023-04-24T06:05:21;11.01;69.76
66594;DHT22;53450;42.584;23.366;2023-04-24T06:07:47;11.00;72.20
66594;DHT22;53450;42.584;23.366;2023-04-24T06:10:13;11.29;72.26
66594;DHT22;53450;42.584;23.366;2023-04-24T06:12:41;11.38;69.64
66594;DHT22;53450;42.584;23.366;2023-04-24T06:15:13;11.40;66.65
66594;DHT22;53450;42.584;23.366;2023-04-24T06:18:04;11.58;66.95
66594;DHT22;53450;42.584;23.366;2023-04-24T06:20:29;11.55;63.27
66594;DHT22;53450;42.584;23.366;2023-04-24T06:22:55;11.56;63.98
66594;DHT22;53450;42.584;23.366;2023-04-24T06:25:21;11.51;64.55
66594;DHT22;53450;42.584;23.366;2023-04-24T06:27:47;11.61;65.05
66594;DHT22;53450;42.584;23.366;2023-04-24T06:30:15;11.58;65.22
66594;DHT22;53450;42.584;23.366;2023-04-24T06:32:40;11.33;66.81
66594;DHT22;53450;42.584;23.366;2023-04-24T06:35:06;11.47;64.72
66594;DHT22;53450;42.584;23.366;2023-04-24T06:37:33;11.66;66.20
66594;DHT22;53450;42.584;23.366;2023-04-24T06:39:59;11.59;66.89
66594;DHT22;53450;42.584;23.366;2023-04-24T06:42:24;11.87;66.80
66594;DHT22;53450;42.584;23.366;2023-04-24T06:44:50;12.05;64.97
66594;DHT22;53450;42.584;23.366;2023-04-24T06:47:15;12.01;64.55
66594;DHT22;53450;42.584;23.366;2023-04-24T06:49:41;12.14;63.27
66594;DHT22;53450;42.584;23.366;2023-04-24T06:52:07;12.17;65.51
66594;DHT22;53450;42.584;23.366;2023-04-24T06:54:33;12.14;64.98
66594;DHT22;53450;42.584;23.366;2023-04-24T06:56:59;12.17;64.44
66594;DHT22;53450;42.584;23.366;2023-04-24T06:59:28;12.20;64.86
66594;DHT22;53450;42.584;23.366;2023-04-24T07:01:55;12.28;64.85
66594;DHT22;53450;42.584;23.366;2023-04-24T07:04:21;12.40;64.19
66594;DHT22;53450;42.584;23.366;2023-04-24T07:06:47;12.42;64.33
66594;DHT22;53450;42.584;23.366;2023-04-24T07:09:14;12.45;62.31
66594;DHT22;53450;42.584;23.366;2023-04-24T07:11:41;12.35;62.20
66594;DHT22;53450;42.584;23.366;2023-04-24T07:14:07;12.20;63.15
66594;DHT22;53450;42.584;23.366;2023-04-24T07:16:34;12.24;64.74
66594;DHT22;53450;42.584;23.366;2023-04-24T07:18:59;12.31;63.85
66594;DHT22;53450;42.584;23.366;2023-04-24T07:21:25;12.22;63.18
66594;DHT22;53450;42.584;23.366;2023-04-24T07:23:52;12.38;62.75
66594;DHT22;53450;42.584;23.366;2023-04-24T07:26:19;12.46;62.71
66594;DHT22;53450;42.584;23.366;2023-04-24T07:28:46;12.63;61.68
66594;DHT22;53450;42.584;23.366;2023-04-24T07:31:12;12.68;62.01
66594;DHT22;53450;42.584;23.366;2023-04-24T07:33:37;12.82;61.43
66594;DHT22;53450;42.584;23.366;2023-04-24T07:36:04;12.58;62.17
66594;DHT22;53450;42.584;23.366;2023-04-24T07:38:30;12.73;61.95
66594;DHT22;53450;42.584;23.366;2023-04-24T07:40:55;12.72;63.16
66594;DHT22;53450;42.584;23.366;2023-04-24T07:43:21;12.95;62.33
66594;DHT22;53450;42.584;23.366;2023-04-24T07:45:50;13.16;60.57
66594;DHT22;53450;42.584;23.366;2023-04-24T07:48:16;13.09;60.63
66594;DHT22;53450;42.584;23.366;2023-04-24T07:50:44;13.09;62.28
66594;DHT22;53450;42.584;23.366;2023-04-24T07:53:09;13.17;61.53
66594;DHT22;53450;42.584;23.366;2023-04-24T07:55:35;13.41;62.17
66594;DHT22;53450;42.584;23.366;2023-04-24T07:58:01;13.38;60.88
66594;DHT22;53450;42.584;23.366;2023-04-24T08:00:26;13.38;60.75
66594;DHT22;53450;42.584;23.366;2023-04-24T08:02:52;13.37;60.08
66594;DHT22;53450;42.584;23.366;2023-04-24T08:05:17;13.36;60.20
66594;DHT22;53450;42.584;23.366;2023-04-24T08:07:45;13.44;59.94
66594;DHT22;53450;42.584;23.366;2023-04-24T08:10:14;13.57;60.74
66594;DHT22;53450;42.584;23.366;2023-04-24T08:12:41;13.62;58.30
66594;DHT22;53450;42.584;23.366;2023-04-24T08:15:07;13.78;60.29
66594;DHT22;53450;42.584;23.366;2023-04-24T08:17:34;13.82;59.19
66594;DHT22;53450;42.584;23.366;2023-04-24T08:20:01;13.92;58.70
66594;DHT22;53450;42.584;23.366;2023-04-24T08:22:27;13.82;59.17
66594;DHT22;53450;42.584;23.366;2023-04-24T08:24:53;13.77;59.28
66594;DHT22;53450;42.584;23.366;2023-04-24T08:27:20;13.78;59.07
66594;DHT22;53450;42.584;23.366;2023-04-24T08:29:45;13.90;58.89
66594;DHT22;53450;42.584;23.366;2023-04-24T08:32:15;13.94;59.19
66594;DHT22;53450;42.584;23.366;2023-04-24T08:34:40;14.06;59.70
66594;DHT22;53450;42.584;23.366;2023-04-24T08:37:06;14.22;58.39
66594;DHT22;53450;42.584;23.366;2023-04-24T08:39:31;14.36;57.92
66594;DHT22;53450;42.584;23.366;2023-04-24T08:41:57;14.51;58.42
66594;DHT22;53450;42.584;23.366;2023-04-24T08:44:32;14.54;57.32
66594;DHT22;53450;42.584;23.366;2023-04-24T08:46:57;14.48;57.06
66594;DHT22;53450;42.584;23.366;2023-04-24T08:49:24;14.54;58.73
66594;DHT22;53450;42.584;23.366;2023-04-24T08:51:52;14.43;57.85
66594;DHT22;53450;42.584;23.366;2023-04-24T08:54:18;14.61;57.67
66594;DHT22;53450;42.584;23.366;2023-04-24T08:56:45;14.54;57.01
66594;DHT22;53450;42.584;23.366;2023-04-24T08:59:14;14.43;58.01
66594;DHT22;53450;42.584;23.366;2023-04-24T09:01:41;14.43;56.55
66594;DHT22;53450;42.584;23.366;2023-04-24T09:04:08;14.66;57.46
66594;DHT22;53450;42.584;23.366;2023-04-24T09:06:36;14.87;55.85
66594;DHT22;53450;42.584;23.366;2023-04-24T09:09:02;15.12;55.68
66594;DHT22;53450;42.584;23.366;2023-04-24T09:11:59;15.24;56.10
66594;DHT22;53450;42.584;23.366;2023-04-24T09:14:26;15.29;54.81
66594;DHT22;53450;42.584;23.366;2023-04-24T09:16:51;15.38;56.17
66594;DHT22;53450;42.584;23.366;2023-04-24T09:19:17;15.39;55.00
66594;DHT22;53450;42.584;23.366;2023-04-24T09:21:45;15.47;55.22
66594;DHT22;53450;42.584;23.366;2023-04-24T09:24:16;15.69;55.10
66594;DHT22;53450;42.584;23.366;2023-04-24T09:26:43;15.82;53.08
66594;DHT22;53450;42.584;23.366;2023-04-24T09:29:16;15.91;51.68
66594;DHT22;53450;42.584;23.366;2023-04-24T09:31:43;16.05;51.50
66594;DHT22;53450;42.584;23.366;2023-04-24T09:34:09;16.07;52.38
66594;DHT22;53450;42.584;23.366;2023-04-24T09:36:39;16.24;51.61
66594;DHT22;53450;42.584;23.366;2023-04-24T09:39:10;16.31;53.22
66594;DHT22;53450;42.584;23.366;2023-04-24T09:46:40;16.35;50.89
66594;DHT22;53450;42.584;23.366;2023-04-24T09:49:12;16.35;51.56
66594;DHT22;53450;42.584;23.366;2023-04-24T09:51:38;16.31;51.61
66594;DHT22;53450;42.584;23.366;2023-04-24T09:54:13;16.29;51.63
66594;DHT22;53450;42.584;23.366;2023-04-24T09:56:42;16.31;48.95
66594;DHT22;53450;42.584;23.366;2023-04-24T09:59:09;16.49;46.71
66594;DHT22;53450;42.584;23.366;2023-04-24T10:01:35;16.71;45.43
66594;DHT22;53450;42.584;23.366;2023-04-24T14:06:23;16.80;60.35
66594;DHT22;53450;42.584;23.366;2023-04-24T14:08:49;16.82;65.30
66594;DHT22;53450;42.584;23.366;2023-04-24T14:11:16;16.97;64.97
66594;DHT22;53450;42.584;23.366;2023-04-24T14:13:42;16.66;66.57
66594;DHT22;53450;42.584;23.366;2023-04-24T14:16:08;16.13;65.91
66594;DHT22;53450;42.584;23.366;2023-04-24T14:18:59;15.96;62.49
66594;DHT22;53450;42.584;23.366;2023-04-24T14:21:25;16.20;65.02
66594;DHT22;53450;42.584;23.366;2023-04-24T14:23:51;16.38;65.44
66594;DHT22;53450;42.584;23.366;2023-04-24T14:26:16;16.21;61.78
66594;DHT22;53450;42.584;23.366;2023-04-24T14:28:42;15.93;64.80
66594;DHT22;53450;42.584;23.366;2023-04-24T14:31:08;15.67;64.22
66594;DHT22;53450;42.584;23.366;2023-04-24T14:33:34;15.38;67.78
66594;DHT22;53450;42.584;23.366;2023-04-24T14:36:00;15.16;66.79
66594;DHT22;53450;42.584;23.366;2023-04-24T14:38:27;14.85;66.63
66594;DHT22;53450;42.584;23.366;2023-04-24T14:40:53;14.51;67.01
66594;DHT22;53450;42.584;23.366;2023-04-24T14:43:19;14.41;68.08
66594;DHT22;53450;42.584;23.366;2023-04-24T14:45:48;14.27;69.20
66594;DHT22;53450;42.584;23.366;2023-04-24T14:48:13;14.36;68.72
66594;DHT22;53450;42.584;23.366;2023-04-24T14:50:42;14.53;67.81
66594;DHT22;53450;42.584;23.366;2023-04-24T14:53:08;14.59;67.87
66594;DHT22;53450;42.584;23.366;2023-04-24T14:55:33;14.68;69.34
66594;DHT22;53450;42.584;23.366;2023-04-24T14:58:02;14.70;67.44
66594;DHT22;53450;42.584;23.366;2023-04-24T15:00:27;14.77;66.98
66594;DHT22;53450;42.584;23.366;2023-04-24T15:02:53;14.83;66.15
66594;DHT22;53450;42.584;23.366;2023-04-24T15:05:20;15.01;66.41
66594;DHT22;53450;42.584;23.366;2023-04-24T15:07:46;15.01;66.39
66594;DHT22;53450;42.584;23.366;2023-04-24T15:10:11;15.15;65.03
66594;DHT22;53450;42.584;23.366;2023-04-24T15:12:37;15.21;66.89
66594;DHT22;53450;42.584;23.366;2023-04-24T15:15:03;15.14;64.79
66594;DHT22;53450;42.584;23.366;2023-04-24T15:17:29;15.16;64.93
66594;DHT22;53450;42.584;23.366;2023-04-24T15:19:55;15.24;65.98
66594;DHT22;53450;42.584;23.366;2023-04-24T15:22:20;15.19;66.06
66594;DHT22;53450;42.584;23.366;2023-04-24T15:24:48;15.08;65.82
66594;DHT22;53450;42.584;23.366;2023-04-24T15:27:14;15.15;65.61
66594;DHT22;53450;42.584;23.366;2023-04-24T15:29:40;15.16;65.69
66594;DHT22;53450;42.584;23.366;2023-04-24T15:32:05;15.05;64.15
66594;DHT22;53450;42.584;23.366;2023-04-24T15:34:31;14.95;65.28
66594;DHT22;53450;42.584;23.366;2023-04-24T15:37:00;15.05;64.63
66594;DHT22;53450;42.584;23.366;2023-04-24T15:39:26;15.12;64.64
66594;DHT22;53450;42.584;23.366;2023-04-24T15:41:54;15.11;65.03
66594;DHT22;53450;42.584;23.366;2023-04-24T15:44:21;15.19;65.20
66594;DHT22;53450;42.584;23.366;2023-04-24T15:46:47;15.19;66.22
66594;DHT22;53450;42.584;23.366;2023-04-24T15:49:13;15.15;65.42
66594;DHT22;53450;42.584;23.366;2023-04-24T15:51:39;15.08;64.96
66594;DHT22;53450;42.584;23.366;2023-04-24T15:54:04;15.05;64.30
66594;DHT22;53450;42.584;23.366;2023-04-24T15:56:30;14.94;64.86
66594;DHT22;53450;42.584;23.366;2023-04-24T15:58:56;15.04;63.45
66594;DHT22;53450;42.584;23.366;2023-04-24T16:01:22;14.95;63.38
66594;DHT22;53450;42.584;23.366;2023-04-24T16:03:48;14.97;64.03
66594;DHT22;53450;42.584;23.366;2023-04-24T16:06:13;15.04;64.51
66594;DHT22;53450;42.584;23.366;2023-04-24T16:08:39;14.98;64.90
66594;DHT22;53450;42.584;23.366;2023-04-24T16:11:05;14.88;64.42
66594;DHT22;53450;42.584;23.366;2023-04-24T16:13:31;14.71;64.72
66594;DHT22;53450;42.584;23.366;2023-04-24T16:15:58;14.63;65.04
66594;DHT22;53450;42.584;23.366;2023-04-24T16:18:30;14.53;65.44
66594;DHT22;53450;42.584;23.366;2023-04-24T16:20:56;14.46;65.74
66594;DHT22;53450;42.584;23.366;2023-04-24T16:23:21;14.39;65.81
66594;DHT22;53450;42.584;23.366;2023-04-24T16:25:47;14.33;64.47
66594;DHT22;53450;42.584;23.366;2023-04-24T16:28:12;14.25;63.19
66594;DHT22;53450;42.584;23.366;2023-04-24T16:30:42;14.10;65.72
66594;DHT22;53450;42.584;23.366;2023-04-24T16:33:07;13.82;67.43
66594;DHT22;53450;42.584;23.366;2023-04-24T16:35:37;13.43;70.77
66594;DHT22;53450;42.584;23.366;2023-04-24T16:38:03;13.06;72.37
66594;DHT22;53450;42.584;23.366;2023-04-24T16:40:29;12.73;74.64
66594;DHT22;53450;42.584;23.366;2023-04-24T16:42:55;12.56;77.22
66594;DHT22;53450;42.584;23.366;2023-04-24T16:45:20;12.46;78.05
66594;DHT22;53450;42.584;23.366;2023-04-24T16:47:46;12.40;79.01
66594;DHT22;53450;42.584;23.366;2023-04-24T16:50:12;12.20;79.73
66594;DHT22;53450;42.584;23.366;2023-04-24T16:52:38;11.91;81.20
66594;DHT22;53450;42.584;23.366;2023-04-24T16:55:04;11.86;81.92
66594;DHT22;53450;42.584;23.366;2023-04-24T16:57:29;11.83;81.70
66594;DHT22;53450;42.584;23.366;2023-04-24T16:59:55;11.79;80.52
66594;DHT22;53450;42.584;23.366;2023-04-24T17:02:21;11.63;79.49
66594;DHT22;53450;42.584;23.366;2023-04-24T17:05:12;11.31;79.54
66594;DHT22;53450;42.584;23.366;2023-04-24T17:07:37;11.08;83.84
66594;DHT22;53450;42.584;23.366;2023-04-24T17:10:03;11.07;84.24
66594;DHT22;53450;42.584;23.366;2023-04-24T17:12:29;11.04;84.49
66594;DHT22;53450;42.584;23.366;2023-04-24T17:15:19;11.15;84.87
66594;DHT22;53450;42.584;23.366;2023-04-24T17:17:45;11.19;84.80
66594;DHT22;53450;42.584;23.366;2023-04-24T17:20:12;11.22;84.59
66594;DHT22;53450;42.584;23.366;2023-04-24T17:22:37;11.16;84.63
66594;DHT22;53450;42.584;23.366;2023-04-24T17:25:03;11.24;84.75
66594;DHT22;53450;42.584;23.366;2023-04-24T17:27:29;11.28;84.87
66594;DHT22;53450;42.584;23.366;2023-04-24T17:29:55;11.35;84.27
66594;DHT22;53450;42.584;23.366;2023-04-24T17:32:21;11.52;84.35
66594;DHT22;53450;42.584;23.366;2023-04-24T17:34:46;11.61;84.03
66594;DHT22;53450;42.584;23.366;2023-04-24T17:37:14;11.62;83.49
66594;DHT22;53450;42.584;23.366;2023-04-24T17:39:44;11.66;83.67
66594;DHT22;53450;42.584;23.366;2023-04-24T17:42:10;11.62;83.96
66594;DHT22;53450;42.584;23.366;2023-04-24T17:44:36;11.43;84.28
66594;DHT22;53450;42.584;23.366;2023-04-24T17:47:01;11.38;83.93
66594;DHT22;53450;42.584;23.366;2023-04-24T17:49:29;11.19;83.24
66594;DHT22;53450;42.584;23.366;2023-04-24T17:51:55;11.11;83.14
66594;DHT22;53450;42.584;23.366;2023-04-24T17:54:21;11.03;83.77
66594;DHT22;53450;42.584;23.366;2023-04-24T17:56:47;11.00;84.10
66594;DHT22;53450;42.584;23.366;2023-04-24T17:59:12;11.07;84.29
66594;DHT22;53450;42.584;23.366;2023-04-24T18:01:38;11.03;84.53
66594;DHT22;53450;42.584;23.366;2023-04-24T18:04:04;11.08;84.81
66594;DHT22;53450;42.584;23.366;2023-04-24T18:06:29;11.14;84.27
66594;DHT22;53450;42.584;23.366;2023-04-24T18:08:55;11.16;84.04
66594;DHT22;53450;42.584;23.366;2023-04-24T18:11:20;11.22;84.41
66594;DHT22;53450;42.584;23.366;2023-04-24T18:13:46;11.12;85.00
66594;DHT22;53450;42.584;23.366;2023-04-24T18:16:13;10.88;85.51
66594;DHT22;53450;42.584;23.366;2023-04-24T18:18:39;10.67;86.03
66594;DHT22;53450;42.584;23.366;2023-04-24T18:21:04;10.81;85.37
66594;DHT22;53450;42.584;23.366;2023-04-24T18:23:30;10.81;85.00
66594;DHT22;53450;42.584;23.366;2023-04-24T18:25:55;10.75;84.77
66594;DHT22;53450;42.584;23.366;2023-04-24T18:28:21;10.68;82.88
66594;DHT22;53450;42.584;23.366;2023-04-24T18:30:46;10.75;80.72
66594;DHT22;53450;42.584;23.366;2023-04-24T18:33:12;10.94;80.02
66594;DHT22;53450;42.584;23.366;2023-04-24T18:35:38;10.98;79.12
66594;DHT22;53450;42.584;23.366;2023-04-24T18:38:03;10.88;81.88
66594;DHT22;53450;42.584;23.366;2023-04-24T18:40:29;10.70;83.60
66594;DHT22;53450;42.584;23.366;2023-04-24T18:42:55;10.53;84.97
66594;DHT22;53450;42.584;23.366;2023-04-24T18:45:21;10.49;85.71
66594;DHT22;53450;42.584;23.366;2023-04-24T18:47:46;10.40;86.13
66594;DHT22;53450;42.584;23.366;2023-04-24T18:50:12;10.43;86.64
66594;DHT22;53450;42.584;23.366;2023-04-24T18:52:39;10.60;86.13
66594;DHT22;53450;42.584;23.366;2023-04-24T18:55:05;10.50;86.15
66594;DHT22;53450;42.584;23.366;2023-04-24T18:57:32;10.49;86.33
66594;DHT22;53450;42.584;23.366;2023-04-24T18:59:57;10.42;86.28
66594;DHT22;53450;42.584;23.366;2023-04-24T19:02:25;10.23;84.68
66594;DHT22;53450;42.584;23.366;2023-04-24T19:04:50;10.12;83.93
66594;DHT22;53450;42.584;23.366;2023-04-24T19:07:16;9.96;84.43
66594;DHT22;53450;42.584;23.366;2023-04-24T19:09:44;9.84;84.73
66594;DHT22;53450;42.584;23.366;2023-04-24T19:12:09;9.79;84.77
66594;DHT22;53450;42.584;23.366;2023-04-24T19:14:35;9.68;84.59
66594;DHT22;53450;42.584;23.366;2023-04-24T19:17:01;9.52;84.96
66594;DHT22;53450;42.584;23.366;2023-04-24T19:19:26;9.48;85.31
66594;DHT22;53450;42.584;23.366;2023-04-24T19:21:53;9.46;85.45
66594;DHT22;53450;42.584;23.366;2023-04-24T19:24:19;9.38;84.98
66594;DHT22;53450;42.584;23.366;2023-04-24T19:26:46;9.48;84.87
66594;DHT22;53450;42.584;23.366;2023-04-24T19:29:12;9.33;84.57
66594;DHT22;53450;42.584;23.366;2023-04-24T19:31:37;9.41;84.74